sensor_id;sensor_type;location;lat;lon;timestamp;P1;durP1;ratioP1;P2;durP2;ratioP2
22160;SDS011;49035;48.812;11.762;2023-05-07T00:00:32;9.17;;;5.53;;
22160;SDS011;49035;48.812;11.762;2023-05-07T00:02:59;7.10;;;5.03;;
22160;SDS011;49035;48.812;11.762;2023-05-07T00:05:24;8.67;;;5.00;;
22160;SDS011;49035;48.812;11.762;2023-05-07T00:07:51;6.17;;;4.97;;
22160;SDS011;49035;48.812;11.762;2023-05-07T00:10:17;6.83;;;5.37;;
22160;SDS011;49035;48.812;11.762;2023-05-07T00:12:43;7.53;;;5.23;;
22160;SDS011;49035;48.812;11.762;2023-05-07T00:15:09;9.47;;;5.40;;
22160;SDS011;49035;48.812;11.762;2023-05-07T00:17:35;6.57;;;4.70;;
22160;SDS011;49035;48.812;11.762;2023-05-07T00:20:02;9.13;;;4.87;;
22160;SDS011;49035;48.812;11.762;2023-05-07T00:22:29;7.30;;;4.87;;
22160;SDS011;49035;48.812;11.762;2023-05-07T00:24:56;6.23;;;4.97;;
22160;SDS011;49035;48.812;11.762;2023-05-07T00:27:21;8.37;;;5.27;;
22160;SDS011;49035;48.812;11.762;2023-05-07T00:29:47;8.97;;;4.70;;
22160;SDS011;49035;48.812;11.762;2023-05-07T00:32:13;5.70;;;4.73;;
22160;SDS011;49035;48.812;11.762;2023-05-07T00:34:39;5.10;;;4.50;;
22160;SDS011;49035;48.812;11.762;2023-05-07T00:37:05;7.30;;;4.47;;
22160;SDS011;49035;48.812;11.762;2023-05-07T00:39:32;8.63;;;4.70;;
22160;SDS011;49035;48.812;11.762;2023-05-07T00:41:58;5.07;;;4.50;;
22160;SDS011;49035;48.812;11.762;2023-05-07T00:44:25;6.27;;;4.83;;
22160;SDS011;49035;48.812;11.762;2023-05-07T00:46:51;6.63;;;4.57;;
22160;SDS011;49035;48.812;11.762;2023-05-07T00:49:17;6.07;;;4.90;;
22160;SDS011;49035;48.812;11.762;2023-05-07T00:51:43;7.97;;;4.50;;
22160;SDS011;49035;48.812;11.762;2023-05-07T00:54:10;5.23;;;4.20;;
22160;SDS011;49035;48.812;11.762;2023-05-07T00:56:36;5.83;;;5.00;;
22160;SDS011;49035;48.812;11.762;2023-05-07T00:59:02;14.77;;;5.33;;
22160;SDS011;49035;48.812;11.762;2023-05-07T01:01:28;7.63;;;4.57;;
22160;SDS011;49035;48.812;11.762;2023-05-07T01:03:54;9.93;;;4.20;;
22160;SDS011;49035;48.812;11.762;2023-05-07T01:06:20;4.93;;;3.87;;
22160;SDS011;49035;48.812;11.762;2023-05-07T01:08:48;8.43;;;4.80;;
22160;SDS011;49035;48.812;11.762;2023-05-07T01:11:15;10.50;;;4.57;;
22160;SDS011;49035;48.812;11.762;2023-05-07T01:13:42;8.23;;;4.40;;
22160;SDS011;49035;48.812;11.762;2023-05-07T01:16:08;4.90;;;4.30;;
22160;SDS011;49035;48.812;11.762;2023-05-07T01:18:34;4.60;;;3.93;;
22160;SDS011;49035;48.812;11.762;2023-05-07T01:21:00;8.30;;;4.43;;
22160;SDS011;49035;48.812;11.762;2023-05-07T01:23:28;6.60;;;4.93;;
22160;SDS011;49035;48.812;11.762;2023-05-07T01:25:55;6.87;;;4.87;;
22160;SDS011;49035;48.812;11.762;2023-05-07T01:28:21;8.50;;;5.23;;
22160;SDS011;49035;48.812;11.762;2023-05-07T01:30:49;7.20;;;5.77;;
22160;SDS011;49035;48.812;11.762;2023-05-07T01:33:18;11.20;;;5.97;;
22160;SDS011;49035;48.812;11.762;2023-05-07T01:35:50;6.90;;;5.77;;
22160;SDS011;49035;48.812;11.762;2023-05-07T01:38:18;9.37;;;6.10;;
22160;SDS011;49035;48.812;11.762;2023-05-07T01:40:45;7.17;;;5.03;;
22160;SDS011;49035;48.812;11.762;2023-05-07T01:43:11;7.00;;;5.40;;
22160;SDS011;49035;48.812;11.762;2023-05-07T01:45:37;8.50;;;5.73;;
22160;SDS011;49035;48.812;11.762;2023-05-07T01:48:04;6.90;;;5.33;;
22160;SDS011;49035;48.812;11.762;2023-05-07T01:50:31;6.23;;;4.73;;
22160;SDS011;49035;48.812;11.762;2023-05-07T01:52:58;5.70;;;4.57;;
22160;SDS011;49035;48.812;11.762;2023-05-07T01:55:24;5.93;;;4.33;;
22160;SDS011;49035;48.812;11.762;2023-05-07T01:57:50;6.17;;;4.40;;
22160;SDS011;49035;48.812;11.762;2023-05-07T02:00:15;6.47;;;4.47;;
22160;SDS011;49035;48.812;11.762;2023-05-07T02:02:42;5.93;;;4.30;;
22160;SDS011;49035;48.812;11.762;2023-05-07T02:05:08;9.50;;;5.00;;
22160;SDS011;49035;48.812;11.762;2023-05-07T02:07:34;7.53;;;5.13;;
22160;SDS011;49035;48.812;11.762;2023-05-07T02:09:59;7.70;;;5.43;;
22160;SDS011;49035;48.812;11.762;2023-05-07T02:12:25;7.03;;;4.90;;
22160;SDS011;49035;48.812;11.762;2023-05-07T02:14:50;7.87;;;5.03;;
22160;SDS011;49035;48.812;11.762;2023-05-07T02:17:16;8.13;;;5.60;;
22160;SDS011;49035;48.812;11.762;2023-05-07T02:19:41;7.63;;;4.57;;
22160;SDS011;49035;48.812;11.762;2023-05-07T02:22:07;6.30;;;4.73;;
22160;SDS011;49035;48.812;11.762;2023-05-07T02:24:34;8.10;;;5.00;;
22160;SDS011;49035;48.812;11.762;2023-05-07T02:26:59;6.00;;;4.90;;
22160;SDS011;49035;48.812;11.762;2023-05-07T02:29:25;5.67;;;4.90;;
22160;SDS011;49035;48.812;11.762;2023-05-07T02:31:51;7.00;;;5.20;;
22160;SDS011;49035;48.812;11.762;2023-05-07T02:34:17;5.60;;;4.43;;
22160;SDS011;49035;48.812;11.762;2023-05-07T02:36:43;10.97;;;5.07;;
22160;SDS011;49035;48.812;11.762;2023-05-07T02:39:10;9.83;;;6.40;;
22160;SDS011;49035;48.812;11.762;2023-05-07T02:41:37;6.70;;;5.10;;
22160;SDS011;49035;48.812;11.762;2023-05-07T02:44:02;9.50;;;5.33;;
22160;SDS011;49035;48.812;11.762;2023-05-07T02:46:28;8.30;;;5.00;;
22160;SDS011;49035;48.812;11.762;2023-05-07T02:48:54;8.00;;;5.87;;
22160;SDS011;49035;48.812;11.762;2023-05-07T02:51:20;7.67;;;5.70;;
22160;SDS011;49035;48.812;11.762;2023-05-07T02:53:47;7.03;;;5.33;;
22160;SDS011;49035;48.812;11.762;2023-05-07T02:56:12;8.70;;;5.63;;
22160;SDS011;49035;48.812;11.762;2023-05-07T02:58:38;5.77;;;4.97;;
22160;SDS011;49035;48.812;11.762;2023-05-07T03:01:04;7.60;;;5.60;;
22160;SDS011;49035;48.812;11.762;2023-05-07T03:03:33;7.40;;;5.40;;
22160;SDS011;49035;48.812;11.762;2023-05-07T03:05:59;7.43;;;5.27;;
22160;SDS011;49035;48.812;11.762;2023-05-07T03:08:25;6.47;;;4.90;;
22160;SDS011;49035;48.812;11.762;2023-05-07T03:10:50;8.07;;;5.03;;
22160;SDS011;49035;48.812;11.762;2023-05-07T03:13:16;5.20;;;4.07;;
22160;SDS011;49035;48.812;11.762;2023-05-07T03:15:42;6.80;;;5.00;;
22160;SDS011;49035;48.812;11.762;2023-05-07T03:18:07;7.73;;;4.43;;
22160;SDS011;49035;48.812;11.762;2023-05-07T03:20:33;8.00;;;4.83;;
22160;SDS011;49035;48.812;11.762;2023-05-07T03:22:59;8.63;;;5.40;;
22160;SDS011;49035;48.812;11.762;2023-05-07T03:25:24;8.30;;;5.80;;
22160;SDS011;49035;48.812;11.762;2023-05-07T03:27:50;6.07;;;4.40;;
22160;SDS011;49035;48.812;11.762;2023-05-07T03:30:16;4.47;;;3.63;;
22160;SDS011;49035;48.812;11.762;2023-05-07T03:32:41;6.10;;;4.50;;
22160;SDS011;49035;48.812;11.762;2023-05-07T03:35:07;7.13;;;4.40;;
22160;SDS011;49035;48.812;11.762;2023-05-07T03:37:33;5.00;;;4.37;;
22160;SDS011;49035;48.812;11.762;2023-05-07T03:39:59;8.87;;;4.10;;
22160;SDS011;49035;48.812;11.762;2023-05-07T03:42:24;9.23;;;4.97;;
22160;SDS011;49035;48.812;11.762;2023-05-07T03:44:50;5.20;;;4.40;;
22160;SDS011;49035;48.812;11.762;2023-05-07T03:47:16;4.93;;;4.00;;
22160;SDS011;49035;48.812;11.762;2023-05-07T03:49:41;4.50;;;3.93;;
22160;SDS011;49035;48.812;11.762;2023-05-07T03:52:07;4.33;;;3.90;;
22160;SDS011;49035;48.812;11.762;2023-05-07T03:54:32;5.17;;;4.23;;
22160;SDS011;49035;48.812;11.762;2023-05-07T03:56:58;7.07;;;4.50;;
22160;SDS011;49035;48.812;11.762;2023-05-07T03:59:23;8.70;;;6.07;;
22160;SDS011;49035;48.812;11.762;2023-05-07T04:01:49;6.53;;;4.80;;
22160;SDS011;49035;48.812;11.762;2023-05-07T04:04:15;10.73;;;5.20;;
22160;SDS011;49035;48.812;11.762;2023-05-07T04:06:41;7.70;;;5.33;;
22160;SDS011;49035;48.812;11.762;2023-05-07T04:09:06;8.67;;;5.97;;
22160;SDS011;49035;48.812;11.762;2023-05-07T04:11:32;7.27;;;5.10;;
22160;SDS011;49035;48.812;11.762;2023-05-07T04:13:58;8.63;;;5.43;;
22160;SDS011;49035;48.812;11.762;2023-05-07T04:16:23;11.13;;;6.93;;
22160;SDS011;49035;48.812;11.762;2023-05-07T04:18:49;12.87;;;6.67;;
22160;SDS011;49035;48.812;11.762;2023-05-07T04:21:18;12.17;;;7.77;;
22160;SDS011;49035;48.812;11.762;2023-05-07T04:23:46;10.93;;;7.70;;
22160;SDS011;49035;48.812;11.762;2023-05-07T04:26:12;13.40;;;8.17;;
22160;SDS011;49035;48.812;11.762;2023-05-07T04:28:38;12.33;;;6.90;;
22160;SDS011;49035;48.812;11.762;2023-05-07T04:31:05;12.17;;;7.90;;
22160;SDS011;49035;48.812;11.762;2023-05-07T04:33:31;13.13;;;8.50;;
22160;SDS011;49035;48.812;11.762;2023-05-07T04:35:57;11.40;;;8.00;;
22160;SDS011;49035;48.812;11.762;2023-05-07T04:38:27;12.70;;;9.20;;
22160;SDS011;49035;48.812;11.762;2023-05-07T04:40:56;14.33;;;8.50;;
22160;SDS011;49035;48.812;11.762;2023-05-07T04:43:22;10.70;;;8.10;;
22160;SDS011;49035;48.812;11.762;2023-05-07T04:45:49;13.93;;;10.20;;
22160;SDS011;49035;48.812;11.762;2023-05-07T04:48:16;14.47;;;10.37;;
22160;SDS011;49035;48.812;11.762;2023-05-07T04:50:44;21.07;;;11.33;;
22160;SDS011;49035;48.812;11.762;2023-05-07T04:53:12;19.90;;;12.93;;
22160;SDS011;49035;48.812;11.762;2023-05-07T04:55:37;23.33;;;12.50;;
22160;SDS011;49035;48.812;11.762;2023-05-07T04:58:03;22.23;;;14.13;;
22160;SDS011;49035;48.812;11.762;2023-05-07T05:00:29;24.13;;;13.57;;
22160;SDS011;49035;48.812;11.762;2023-05-07T05:02:55;23.43;;;14.43;;
22160;SDS011;49035;48.812;11.762;2023-05-07T05:05:21;23.00;;;16.07;;
22160;SDS011;49035;48.812;11.762;2023-05-07T05:07:46;23.47;;;15.60;;
22160;SDS011;49035;48.812;11.762;2023-05-07T05:10:12;31.90;;;17.87;;
22160;SDS011;49035;48.812;11.762;2023-05-07T05:12:37;23.40;;;16.37;;
22160;SDS011;49035;48.812;11.762;2023-05-07T05:15:03;26.77;;;17.00;;
22160;SDS011;49035;48.812;11.762;2023-05-07T05:17:30;29.63;;;16.37;;
22160;SDS011;49035;48.812;11.762;2023-05-07T05:19:55;26.53;;;17.53;;
22160;SDS011;49035;48.812;11.762;2023-05-07T05:22:21;29.92;;;18.10;;
22160;SDS011;49035;48.812;11.762;2023-05-07T05:24:47;30.67;;;19.70;;
22160;SDS011;49035;48.812;11.762;2023-05-07T05:27:12;41.93;;;23.77;;
22160;SDS011;49035;48.812;11.762;2023-05-07T05:29:38;41.75;;;26.27;;
22160;SDS011;49035;48.812;11.762;2023-05-07T05:32:03;32.47;;;21.92;;
22160;SDS011;49035;48.812;11.762;2023-05-07T05:34:29;29.30;;;20.00;;
22160;SDS011;49035;48.812;11.762;2023-05-07T05:36:54;31.25;;;19.52;;
22160;SDS011;49035;48.812;11.762;2023-05-07T05:39:20;21.90;;;15.43;;
22160;SDS011;49035;48.812;11.762;2023-05-07T05:41:48;17.50;;;12.77;;
22160;SDS011;49035;48.812;11.762;2023-05-07T05:44:13;19.90;;;13.55;;
22160;SDS011;49035;48.812;11.762;2023-05-07T05:46:39;19.23;;;13.65;;
22160;SDS011;49035;48.812;11.762;2023-05-07T05:49:04;18.40;;;13.40;;
22160;SDS011;49035;48.812;11.762;2023-05-07T05:51:30;19.52;;;13.70;;
22160;SDS011;49035;48.812;11.762;2023-05-07T05:53:56;14.02;;;11.55;;
22160;SDS011;49035;48.812;11.762;2023-05-07T05:56:21;14.38;;;10.32;;
22160;SDS011;49035;48.812;11.762;2023-05-07T05:58:47;10.25;;;8.18;;
22160;SDS011;49035;48.812;11.762;2023-05-07T06:01:12;7.88;;;7.10;;
22160;SDS011;49035;48.812;11.762;2023-05-07T06:03:38;6.72;;;6.03;;
22160;SDS011;49035;48.812;11.762;2023-05-07T06:06:03;7.03;;;5.57;;
22160;SDS011;49035;48.812;11.762;2023-05-07T06:08:29;6.40;;;5.50;;
22160;SDS011;49035;48.812;11.762;2023-05-07T06:10:55;6.57;;;5.90;;
22160;SDS011;49035;48.812;11.762;2023-05-07T06:13:21;8.38;;;5.82;;
22160;SDS011;49035;48.812;11.762;2023-05-07T06:15:47;6.90;;;5.80;;
22160;SDS011;49035;48.812;11.762;2023-05-07T06:18:13;7.82;;;5.82;;
22160;SDS011;49035;48.812;11.762;2023-05-07T06:20:39;6.50;;;5.55;;
22160;SDS011;49035;48.812;11.762;2023-05-07T06:23:04;8.05;;;6.00;;
22160;SDS011;49035;48.812;11.762;2023-05-07T06:25:30;5.72;;;5.10;;
22160;SDS011;49035;48.812;11.762;2023-05-07T06:27:56;5.32;;;4.82;;
22160;SDS011;49035;48.812;11.762;2023-05-07T06:30:21;7.82;;;4.90;;
22160;SDS011;49035;48.812;11.762;2023-05-07T06:32:47;5.05;;;4.55;;
22160;SDS011;49035;48.812;11.762;2023-05-07T06:35:12;5.25;;;4.75;;
22160;SDS011;49035;48.812;11.762;2023-05-07T06:37:38;5.60;;;5.05;;
22160;SDS011;49035;48.812;11.762;2023-05-07T06:40:05;10.00;;;4.80;;
22160;SDS011;49035;48.812;11.762;2023-05-07T06:42:31;6.60;;;5.00;;
22160;SDS011;49035;48.812;11.762;2023-05-07T06:44:57;7.05;;;5.57;;
22160;SDS011;49035;48.812;11.762;2023-05-07T06:47:23;8.98;;;5.10;;
22160;SDS011;49035;48.812;11.762;2023-05-07T06:49:48;7.25;;;5.60;;
22160;SDS011;49035;48.812;11.762;2023-05-07T06:52:14;7.22;;;5.20;;
22160;SDS011;49035;48.812;11.762;2023-05-07T06:54:39;9.00;;;5.40;;
22160;SDS011;49035;48.812;11.762;2023-05-07T06:57:05;6.00;;;4.75;;
22160;SDS011;49035;48.812;11.762;2023-05-07T06:59:30;7.93;;;5.32;;
22160;SDS011;49035;48.812;11.762;2023-05-07T07:01:56;8.13;;;5.15;;
22160;SDS011;49035;48.812;11.762;2023-05-07T07:04:21;5.88;;;5.28;;
22160;SDS011;49035;48.812;11.762;2023-05-07T07:06:48;7.25;;;5.38;;
22160;SDS011;49035;48.812;11.762;2023-05-07T07:09:14;7.60;;;4.88;;
22160;SDS011;49035;48.812;11.762;2023-05-07T07:11:40;10.18;;;5.65;;
22160;SDS011;49035;48.812;11.762;2023-05-07T07:14:05;7.10;;;5.80;;
22160;SDS011;49035;48.812;11.762;2023-05-07T07:16:31;7.47;;;5.97;;
22160;SDS011;49035;48.812;11.762;2023-05-07T07:18:56;7.47;;;5.78;;
22160;SDS011;49035;48.812;11.762;2023-05-07T07:21:22;8.73;;;5.60;;
22160;SDS011;49035;48.812;11.762;2023-05-07T07:23:48;6.13;;;5.32;;
22160;SDS011;49035;48.812;11.762;2023-05-07T07:26:13;6.00;;;5.30;;
22160;SDS011;49035;48.812;11.762;2023-05-07T07:28:43;7.55;;;5.70;;
22160;SDS011;49035;48.812;11.762;2023-05-07T07:31:09;6.28;;;5.20;;
22160;SDS011;49035;48.812;11.762;2023-05-07T07:33:34;9.73;;;5.75;;
22160;SDS011;49035;48.812;11.762;2023-05-07T07:36:00;6.40;;;5.72;;
22160;SDS011;49035;48.812;11.762;2023-05-07T07:38:26;8.00;;;6.00;;
22160;SDS011;49035;48.812;11.762;2023-05-07T07:40:51;6.28;;;5.63;;
22160;SDS011;49035;48.812;11.762;2023-05-07T07:43:17;7.68;;;5.95;;
22160;SDS011;49035;48.812;11.762;2023-05-07T07:45:42;6.20;;;5.57;;
22160;SDS011;49035;48.812;11.762;2023-05-07T07:48:08;9.82;;;6.35;;
22160;SDS011;49035;48.812;11.762;2023-05-07T07:50:35;7.13;;;6.10;;
22160;SDS011;49035;48.812;11.762;2023-05-07T07:53:01;8.27;;;5.90;;
22160;SDS011;49035;48.812;11.762;2023-05-07T07:55:27;6.70;;;5.93;;
22160;SDS011;49035;48.812;11.762;2023-05-07T07:57:52;9.73;;;5.90;;
22160;SDS011;49035;48.812;11.762;2023-05-07T08:00:18;6.60;;;5.63;;
22160;SDS011;49035;48.812;11.762;2023-05-07T08:02:44;7.32;;;5.80;;
22160;SDS011;49035;48.812;11.762;2023-05-07T08:05:09;7.70;;;5.65;;
22160;SDS011;49035;48.812;11.762;2023-05-07T08:07:35;6.18;;;5.40;;
22160;SDS011;49035;48.812;11.762;2023-05-07T08:10:01;6.00;;;5.13;;
22160;SDS011;49035;48.812;11.762;2023-05-07T08:12:27;6.25;;;5.57;;
22160;SDS011;49035;48.812;11.762;2023-05-07T08:14:52;7.40;;;5.30;;
22160;SDS011;49035;48.812;11.762;2023-05-07T08:17:21;5.60;;;5.00;;
22160;SDS011;49035;48.812;11.762;2023-05-07T08:19:47;5.93;;;5.32;;
22160;SDS011;49035;48.812;11.762;2023-05-07T08:22:13;8.18;;;5.80;;
22160;SDS011;49035;48.812;11.762;2023-05-07T08:24:39;7.35;;;5.65;;
22160;SDS011;49035;48.812;11.762;2023-05-07T08:27:05;6.38;;;5.57;;
22160;SDS011;49035;48.812;11.762;2023-05-07T08:29:30;6.00;;;5.40;;
22160;SDS011;49035;48.812;11.762;2023-05-07T08:31:56;8.00;;;6.00;;
22160;SDS011;49035;48.812;11.762;2023-05-07T08:34:22;6.53;;;5.85;;
22160;SDS011;49035;48.812;11.762;2023-05-07T08:36:47;6.68;;;5.45;;
22160;SDS011;49035;48.812;11.762;2023-05-07T08:39:14;7.20;;;5.88;;
22160;SDS011;49035;48.812;11.762;2023-05-07T08:41:41;6.88;;;5.50;;
22160;SDS011;49035;48.812;11.762;2023-05-07T08:44:12;5.95;;;5.32;;
22160;SDS011;49035;48.812;11.762;2023-05-07T08:46:39;6.93;;;5.80;;
22160;SDS011;49035;48.812;11.762;2023-05-07T08:49:06;5.53;;;5.03;;
22160;SDS011;49035;48.812;11.762;2023-05-07T08:51:32;6.35;;;5.60;;
22160;SDS011;49035;48.812;11.762;2023-05-07T08:53:58;6.60;;;5.22;;
22160;SDS011;49035;48.812;11.762;2023-05-07T08:56:26;5.90;;;5.15;;
22160;SDS011;49035;48.812;11.762;2023-05-07T08:58:52;7.63;;;5.18;;
22160;SDS011;49035;48.812;11.762;2023-05-07T09:01:21;6.72;;;5.32;;
22160;SDS011;49035;48.812;11.762;2023-05-07T09:03:47;6.63;;;5.88;;
22160;SDS011;49035;48.812;11.762;2023-05-07T09:06:13;6.40;;;5.28;;
22160;SDS011;49035;48.812;11.762;2023-05-07T09:08:39;8.20;;;5.05;;
22160;SDS011;49035;48.812;11.762;2023-05-07T09:11:04;7.15;;;5.32;;
22160;SDS011;49035;48.812;11.762;2023-05-07T09:13:30;5.68;;;4.70;;
22160;SDS011;49035;48.812;11.762;2023-05-07T09:15:56;6.55;;;5.10;;
22160;SDS011;49035;48.812;11.762;2023-05-07T09:18:23;6.30;;;5.65;;
22160;SDS011;49035;48.812;11.762;2023-05-07T09:20:50;7.93;;;5.18;;
22160;SDS011;49035;48.812;11.762;2023-05-07T09:23:16;6.55;;;5.38;;
22160;SDS011;49035;48.812;11.762;2023-05-07T09:25:41;8.38;;;5.40;;
22160;SDS011;49035;48.812;11.762;2023-05-07T09:28:07;6.60;;;5.70;;
22160;SDS011;49035;48.812;11.762;2023-05-07T09:30:35;6.28;;;5.10;;
22160;SDS011;49035;48.812;11.762;2023-05-07T09:33:02;4.95;;;4.40;;
22160;SDS011;49035;48.812;11.762;2023-05-07T09:35:29;6.20;;;4.45;;
22160;SDS011;49035;48.812;11.762;2023-05-07T09:37:56;5.40;;;4.88;;
22160;SDS011;49035;48.812;11.762;2023-05-07T09:40:23;4.97;;;4.50;;
22160;SDS011;49035;48.812;11.762;2023-05-07T09:42:51;8.10;;;5.45;;
22160;SDS011;49035;48.812;11.762;2023-05-07T09:45:26;5.68;;;5.07;;
22160;SDS011;49035;48.812;11.762;2023-05-07T09:47:56;5.72;;;5.15;;
22160;SDS011;49035;48.812;11.762;2023-05-07T09:50:30;6.60;;;5.30;;
22160;SDS011;49035;48.812;11.762;2023-05-07T09:53:01;5.53;;;4.50;;
22160;SDS011;49035;48.812;11.762;2023-05-07T09:55:28;6.68;;;4.82;;
22160;SDS011;49035;48.812;11.762;2023-05-07T09:57:54;5.10;;;4.32;;
22160;SDS011;49035;48.812;11.762;2023-05-07T10:00:20;5.05;;;3.80;;
22160;SDS011;49035;48.812;11.762;2023-05-07T10:02:51;5.72;;;3.80;;
22160;SDS011;49035;48.812;11.762;2023-05-07T10:05:17;7.43;;;3.88;;
22160;SDS011;49035;48.812;11.762;2023-05-07T10:07:45;5.28;;;3.60;;
22160;SDS011;49035;48.812;11.762;2023-05-07T10:10:12;5.47;;;3.35;;
22160;SDS011;49035;48.812;11.762;2023-05-07T10:12:39;9.90;;;3.88;;
22160;SDS011;49035;48.812;11.762;2023-05-07T10:15:06;3.60;;;3.30;;
22160;SDS011;49035;48.812;11.762;2023-05-07T10:17:35;3.90;;;3.47;;
22160;SDS011;49035;48.812;11.762;2023-05-07T10:20:02;3.63;;;3.30;;
22160;SDS011;49035;48.812;11.762;2023-05-07T10:22:29;4.75;;;4.13;;
22160;SDS011;49035;48.812;11.762;2023-05-07T10:25:03;5.10;;;3.28;;
22160;SDS011;49035;48.812;11.762;2023-05-07T10:27:33;4.60;;;3.22;;
22160;SDS011;49035;48.812;11.762;2023-05-07T10:30:15;3.60;;;3.30;;
22160;SDS011;49035;48.812;11.762;2023-05-07T10:32:55;3.20;;;2.70;;
22160;SDS011;49035;48.812;11.762;2023-05-07T10:35:30;3.60;;;2.80;;
22160;SDS011;49035;48.812;11.762;2023-05-07T10:38:00;3.03;;;2.30;;
22160;SDS011;49035;48.812;11.762;2023-05-07T10:40:27;2.33;;;2.10;;
22160;SDS011;49035;48.812;11.762;2023-05-07T10:42:56;3.85;;;2.90;;
22160;SDS011;49035;48.812;11.762;2023-05-07T10:45:24;3.28;;;2.53;;
22160;SDS011;49035;48.812;11.762;2023-05-07T10:50:32;4.80;;;2.83;;
22160;SDS011;49035;48.812;11.762;2023-05-07T10:55:42;3.97;;;2.17;;
22160;SDS011;49035;48.812;11.762;2023-05-07T11:00:46;4.03;;;2.13;;
22160;SDS011;49035;48.812;11.762;2023-05-07T11:03:13;2.10;;;1.98;;
22160;SDS011;49035;48.812;11.762;2023-05-07T11:05:40;4.30;;;2.30;;
22160;SDS011;49035;48.812;11.762;2023-05-07T11:08:06;2.90;;;2.30;;
22160;SDS011;49035;48.812;11.762;2023-05-07T11:10:49;6.95;;;3.03;;
22160;SDS011;49035;48.812;11.762;2023-05-07T11:16:19;4.57;;;2.78;;
22160;SDS011;49035;48.812;11.762;2023-05-07T11:18:51;4.95;;;2.50;;
22160;SDS011;49035;48.812;11.762;2023-05-07T11:21:37;2.25;;;2.05;;
22160;SDS011;49035;48.812;11.762;2023-05-07T11:24:05;4.53;;;2.50;;
22160;SDS011;49035;48.812;11.762;2023-05-07T11:26:42;3.95;;;2.40;;
22160;SDS011;49035;48.812;11.762;2023-05-07T11:29:19;2.83;;;2.30;;
22160;SDS011;49035;48.812;11.762;2023-05-07T11:31:53;3.78;;;2.40;;
22160;SDS011;49035;48.812;11.762;2023-05-07T11:34:23;2.63;;;2.30;;
22160;SDS011;49035;48.812;11.762;2023-05-07T11:36:50;5.13;;;2.40;;
22160;SDS011;49035;48.812;11.762;2023-05-07T11:39:26;8.35;;;2.67;;
22160;SDS011;49035;48.812;11.762;2023-05-07T11:41:52;2.13;;;1.95;;
22160;SDS011;49035;48.812;11.762;2023-05-07T11:44:18;2.30;;;2.10;;
22160;SDS011;49035;48.812;11.762;2023-05-07T11:46:43;3.25;;;2.00;;
22160;SDS011;49035;48.812;11.762;2023-05-07T11:49:10;2.65;;;1.90;;
22160;SDS011;49035;48.812;11.762;2023-05-07T11:51:35;3.75;;;2.45;;
22160;SDS011;49035;48.812;11.762;2023-05-07T11:54:03;2.30;;;2.10;;
22160;SDS011;49035;48.812;11.762;2023-05-07T11:56:33;2.20;;;1.90;;
22160;SDS011;49035;48.812;11.762;2023-05-07T11:59:00;2.92;;;1.80;;
22160;SDS011;49035;48.812;11.762;2023-05-07T12:01:26;2.13;;;1.65;;
22160;SDS011;49035;48.812;11.762;2023-05-07T12:03:51;1.80;;;1.70;;
22160;SDS011;49035;48.812;11.762;2023-05-07T12:06:17;2.78;;;2.00;;
22160;SDS011;49035;48.812;11.762;2023-05-07T12:08:43;2.03;;;1.83;;
22160;SDS011;49035;48.812;11.762;2023-05-07T12:11:13;3.55;;;2.03;;
22160;SDS011;49035;48.812;11.762;2023-05-07T12:13:48;5.07;;;2.10;;
22160;SDS011;49035;48.812;11.762;2023-05-07T12:16:14;3.10;;;1.75;;
22160;SDS011;49035;48.812;11.762;2023-05-07T12:18:40;2.80;;;1.58;;
22160;SDS011;49035;48.812;11.762;2023-05-07T12:21:06;3.55;;;1.80;;
22160;SDS011;49035;48.812;11.762;2023-05-07T12:23:33;3.15;;;2.38;;
22160;SDS011;49035;48.812;11.762;2023-05-07T12:26:00;2.38;;;1.88;;
22160;SDS011;49035;48.812;11.762;2023-05-07T12:28:26;2.10;;;1.80;;
22160;SDS011;49035;48.812;11.762;2023-05-07T12:30:52;3.95;;;1.85;;
22160;SDS011;49035;48.812;11.762;2023-05-07T12:33:18;2.40;;;2.05;;
22160;SDS011;49035;48.812;11.762;2023-05-07T12:35:48;2.58;;;1.90;;
22160;SDS011;49035;48.812;11.762;2023-05-07T12:38:15;1.83;;;1.70;;
22160;SDS011;49035;48.812;11.762;2023-05-07T12:40:46;1.58;;;1.48;;
22160;SDS011;49035;48.812;11.762;2023-05-07T12:43:19;2.65;;;1.90;;
22160;SDS011;49035;48.812;11.762;2023-05-07T12:45:49;3.70;;;1.80;;
22160;SDS011;49035;48.812;11.762;2023-05-07T12:48:16;3.40;;;2.20;;
22160;SDS011;49035;48.812;11.762;2023-05-07T12:50:41;3.42;;;1.95;;
22160;SDS011;49035;48.812;11.762;2023-05-07T12:53:08;2.13;;;1.73;;
22160;SDS011;49035;48.812;11.762;2023-05-07T12:55:42;2.92;;;1.50;;
22160;SDS011;49035;48.812;11.762;2023-05-07T12:58:19;2.30;;;1.60;;
22160;SDS011;49035;48.812;11.762;2023-05-07T13:00:53;2.92;;;1.75;;
22160;SDS011;49035;48.812;11.762;2023-05-07T13:05:57;3.03;;;1.80;;
22160;SDS011;49035;48.812;11.762;2023-05-07T13:08:38;2.00;;;1.65;;
22160;SDS011;49035;48.812;11.762;2023-05-07T13:11:08;3.10;;;1.40;;
22160;SDS011;49035;48.812;11.762;2023-05-07T13:13:35;2.65;;;1.40;;
22160;SDS011;49035;48.812;11.762;2023-05-07T13:16:03;1.70;;;1.55;;
22160;SDS011;49035;48.812;11.762;2023-05-07T13:18:30;1.70;;;1.60;;
22160;SDS011;49035;48.812;11.762;2023-05-07T13:20:56;2.10;;;1.70;;
22160;SDS011;49035;48.812;11.762;2023-05-07T13:23:22;3.00;;;1.40;;
22160;SDS011;49035;48.812;11.762;2023-05-07T13:25:47;2.63;;;2.20;;
22160;SDS011;49035;48.812;11.762;2023-05-07T13:28:14;3.05;;;2.00;;
22160;SDS011;49035;48.812;11.762;2023-05-07T13:30:39;2.92;;;2.00;;
22160;SDS011;49035;48.812;11.762;2023-05-07T13:33:08;3.47;;;2.33;;
22160;SDS011;49035;48.812;11.762;2023-05-07T13:35:34;3.88;;;2.00;;
22160;SDS011;49035;48.812;11.762;2023-05-07T13:38:00;2.42;;;2.00;;
22160;SDS011;49035;48.812;11.762;2023-05-07T13:40:25;2.20;;;1.80;;
22160;SDS011;49035;48.812;11.762;2023-05-07T13:42:51;3.80;;;1.60;;
22160;SDS011;49035;48.812;11.762;2023-05-07T13:45:17;2.35;;;1.70;;
22160;SDS011;49035;48.812;11.762;2023-05-07T13:47:44;3.58;;;2.05;;
22160;SDS011;49035;48.812;11.762;2023-05-07T13:50:11;2.03;;;1.83;;
22160;SDS011;49035;48.812;11.762;2023-05-07T13:52:38;2.47;;;1.60;;
22160;SDS011;49035;48.812;11.762;2023-05-07T13:55:08;2.25;;;1.92;;
22160;SDS011;49035;48.812;11.762;2023-05-07T13:57:35;2.25;;;1.50;;
22160;SDS011;49035;48.812;11.762;2023-05-07T14:00:01;1.88;;;1.50;;
22160;SDS011;49035;48.812;11.762;2023-05-07T14:02:27;1.60;;;1.50;;
22160;SDS011;49035;48.812;11.762;2023-05-07T14:04:53;1.83;;;1.67;;
22160;SDS011;49035;48.812;11.762;2023-05-07T14:07:18;2.53;;;2.00;;
22160;SDS011;49035;48.812;11.762;2023-05-07T14:09:44;2.47;;;1.95;;
22160;SDS011;49035;48.812;11.762;2023-05-07T14:12:10;2.20;;;1.75;;
22160;SDS011;49035;48.812;11.762;2023-05-07T14:14:35;1.90;;;1.75;;
22160;SDS011;49035;48.812;11.762;2023-05-07T14:17:01;2.67;;;1.83;;
22160;SDS011;49035;48.812;11.762;2023-05-07T14:19:26;3.22;;;1.73;;
22160;SDS011;49035;48.812;11.762;2023-05-07T14:21:52;4.47;;;1.98;;
22160;SDS011;49035;48.812;11.762;2023-05-07T14:24:18;1.90;;;1.70;;
22160;SDS011;49035;48.812;11.762;2023-05-07T14:26:43;2.55;;;1.75;;
22160;SDS011;49035;48.812;11.762;2023-05-07T14:29:10;2.42;;;1.70;;
22160;SDS011;49035;48.812;11.762;2023-05-07T14:31:35;1.70;;;1.60;;
22160;SDS011;49035;48.812;11.762;2023-05-07T14:34:01;2.53;;;1.75;;
22160;SDS011;49035;48.812;11.762;2023-05-07T14:36:27;1.85;;;1.40;;
22160;SDS011;49035;48.812;11.762;2023-05-07T14:38:53;1.80;;;1.50;;
22160;SDS011;49035;48.812;11.762;2023-05-07T14:41:19;1.63;;;1.52;;